Time;durP1;ratioP1;P1;durP2;ratioP2;P2;SDS_P1;SDS_P2;PMS_P1;PMS_P2;Temp;Humidity;BMP_temperature;BMP_pressure;BME280_temperature;BME280_humidity;BME280_pressure;Samples;Min_cycle;Max_cycle;Signal;HPM_P1;HPM_P2
2022/05/09 00:00:11;;;;;;;6.50;4.13;;;9.40;99.90;;;;;;4996453;28;20031;-78
2022/05/09 00:02:37;;;;;;;6.97;4.65;;;9.40;99.90;;;;;;4986183;28;20109;-79
2022/05/09 00:05:04;;;;;;;11.88;4.22;;;9.40;99.90;;;;;;4984358;28;20049;-83
2022/05/09 00:07:30;;;;;;;4.88;4.40;;;9.30;99.90;;;;;;4984668;28;20026;-79
2022/05/09 00:09:57;;;;;;;5.35;4.05;;;9.20;99.90;;;;;;4979456;28;20849;-80
2022/05/09 00:12:23;;;;;;;6.97;4.30;;;9.20;99.90;;;;;;4988100;28;20035;-79
2022/05/09 00:15:05;;;;;;;5.72;4.53;;;9.00;99.90;;;;;;4999151;28;20038;-81
2022/05/09 00:17:51;;;;;;;5.60;4.28;;;9.00;99.90;;;;;;4994093;28;20023;-83
2022/05/09 00:20:18;;;;;;;6.00;3.75;;;9.10;99.90;;;;;;4994156;28;20018;-82
2022/05/09 00:22:51;;;;;;;7.63;4.88;;;9.10;99.90;;;;;;4984732;28;20039;-83
2022/05/09 00:25:18;;;;;;;5.30;4.13;;;9.10;99.90;;;;;;4970456;29;20079;-80
2022/05/09 00:27:44;;;;;;;6.15;4.07;;;9.10;99.90;;;;;;4966548;28;20027;-82
2022/05/09 00:30:19;;;;;;;6.03;4.43;;;9.10;99.90;;;;;;4987003;28;20503;-81
2022/05/09 00:32:45;;;;;;;5.65;3.63;;;9.10;99.90;;;;;;4970859;28;20031;-79
2022/05/09 00:35:12;;;;;;;4.22;3.83;;;9.00;99.90;;;;;;4970132;28;20038;-79
2022/05/09 00:37:38;;;;;;;4.68;3.85;;;8.90;99.90;;;;;;4970001;28;20121;-79
2022/05/09 00:40:08;;;;;;;6.38;4.60;;;8.90;99.90;;;;;;4969225;28;20110;-78
2022/05/09 00:42:34;;;;;;;6.40;4.72;;;8.90;99.90;;;;;;4961373;28;20455;-78
2022/05/09 00:45:01;;;;;;;8.40;5.07;;;9.10;99.90;;;;;;4969533;28;20035;-79
2022/05/09 00:47:27;;;;;;;8.18;5.68;;;9.20;99.90;;;;;;4969537;28;20019;-79
2022/05/09 00:50:00;;;;;;;7.07;5.43;;;9.20;99.90;;;;;;4969725;28;20027;-79
2022/05/09 00:52:26;;;;;;;6.43;4.65;;;9.10;99.90;;;;;;4965768;28;20028;-79
2022/05/09 00:55:06;;;;;;;7.05;4.40;;;9.00;99.90;;;;;;4950458;28;20023;-78
2022/05/09 00:57:52;;;;;;;4.70;3.97;;;8.90;99.90;;;;;;4954833;28;20035;-78
2022/05/09 01:00:21;;;;;;;9.30;4.15;;;8.90;99.90;;;;;;4971782;28;20050;-78
2022/05/09 01:03:01;;;;;;;7.40;4.38;;;8.90;99.90;;;;;;4968249;28;20580;-78
2022/05/09 01:05:28;;;;;;;7.22;4.88;;;9.00;99.90;;;;;;4965766;28;20035;-78
2022/05/09 01:07:55;;;;;;;7.80;4.90;;;9.20;99.90;;;;;;4970257;28;20023;-78
2022/05/09 01:10:26;;;;;;;5.95;4.55;;;9.30;99.90;;;;;;4971326;28;20030;-78
2022/05/09 01:12:52;;;;;;;6.72;4.63;;;9.30;99.90;;;;;;4969786;28;20026;-79
2022/05/09 01:15:18;;;;;;;8.77;5.07;;;9.30;99.90;;;;;;4970141;28;20419;-78
2022/05/09 01:17:46;;;;;;;7.00;5.20;;;9.50;99.90;;;;;;4972019;28;20058;-78
2022/05/09 01:20:13;;;;;;;6.35;4.20;;;9.60;99.90;;;;;;4969741;28;20326;-78
2022/05/09 01:22:41;;;;;;;7.28;5.28;;;9.60;99.90;;;;;;4970207;28;20023;-78
2022/05/09 01:25:10;;;;;;;6.03;4.40;;;9.80;99.90;;;;;;4961065;28;20378;-78
2022/05/09 01:27:44;;;;;;;5.85;4.07;;;9.80;99.90;;;;;;4952071;29;20086;-78
2022/05/09 01:30:44;;;;;;;7.90;4.38;;;9.80;99.90;;;;;;4951328;28;20179;-78
2022/05/09 01:33:20;;;;;;;6.32;4.25;;;10.00;99.90;;;;;;4951749;29;20032;-78
2022/05/09 01:35:52;;;;;;;5.00;4.00;;;10.10;99.90;;;;;;4952100;29;20024;-78
2022/05/09 01:38:32;;;;;;;6.47;4.60;;;10.20;99.90;;;;;;4968957;28;20086;-81
2022/05/09 01:40:58;;;;;;;8.18;5.07;;;10.30;99.90;;;;;;4970699;28;20062;-81
2022/05/09 01:43:36;;;;;;;6.22;3.92;;;10.20;99.90;;;;;;4971587;28;20576;-80
2022/05/09 01:46:07;;;;;;;5.95;4.30;;;10.20;99.90;;;;;;4972462;28;20086;-80
2022/05/09 01:51:18;;;;;;;8.43;4.60;;;10.40;99.90;;;;;;4973278;28;20041;-80
2022/05/09 01:53:49;;;;;;;5.47;4.38;;;10.50;99.90;;;;;;4987413;28;20053;-81
2022/05/09 01:56:16;;;;;;;4.97;3.90;;;10.40;99.90;;;;;;4972355;28;20098;-81
2022/05/09 01:58:41;;;;;;;8.98;4.00;;;10.50;99.90;;;;;;4972198;28;20034;-81
2022/05/09 02:01:08;;;;;;;7.18;5.55;;;10.50;99.90;;;;;;4972462;28;20035;-81
2022/05/09 02:03:34;;;;;;;8.77;6.30;;;10.50;99.90;;;;;;4986999;28;20054;-80
2022/05/09 02:06:00;;;;;;;5.90;5.25;;;10.70;99.90;;;;;;4971747;28;20050;-80
2022/05/09 02:08:25;;;;;;;8.25;4.60;;;11.40;99.90;;;;;;4971858;28;20031;-80
2022/05/09 02:10:51;;;;;;;5.55;4.35;;;11.00;99.90;;;;;;4971877;28;20392;-80
2022/05/09 02:13:17;;;;;;;7.35;4.70;;;11.00;99.90;;;;;;4971747;28;20019;-80
2022/05/09 02:15:42;;;;;;;5.82;4.20;;;11.10;99.90;;;;;;4972044;28;20030;-79
2022/05/09 02:18:08;;;;;;;5.97;3.42;;;11.20;99.90;;;;;;4971851;28;20030;-80
2022/05/09 02:20:34;;;;;;;5.38;3.90;;;11.10;99.90;;;;;;4986486;28;20295;-79
2022/05/09 02:22:59;;;;;;;8.68;4.95;;;11.10;99.90;;;;;;4986276;28;20069;-80
2022/05/09 02:25:31;;;;;;;9.52;4.85;;;11.10;99.90;;;;;;4971826;28;20121;-79
2022/05/09 02:28:02;;;;;;;5.07;4.50;;;11.20;99.90;;;;;;4986559;28;20365;-80
2022/05/09 02:33:05;;;;;;;6.13;5.28;;;11.30;99.90;;;;;;5707471;23;20146;-80
2022/05/09 02:35:31;;;;;;;7.80;4.63;;;11.40;99.90;;;;;;4957353;29;20073;-80
2022/05/09 02:37:57;;;;;;;5.07;3.92;;;11.40;99.90;;;;;;4958410;29;20031;-80
2022/05/09 02:40:26;;;;;;;7.32;5.25;;;11.40;99.90;;;;;;4956802;28;20039;-80
2022/05/09 02:42:58;;;;;;;7.82;5.13;;;11.60;99.90;;;;;;4958383;29;20113;-81
2022/05/09 02:45:24;;;;;;;6.00;5.35;;;11.60;99.90;;;;;;4956769;29;20043;-80
2022/05/09 02:47:50;;;;;;;5.78;4.40;;;11.70;99.90;;;;;;4956339;28;20024;-80
2022/05/09 02:50:17;;;;;;;5.97;4.32;;;11.70;99.90;;;;;;4957735;29;20099;-80
2022/05/09 02:52:43;;;;;;;6.50;4.72;;;11.70;99.90;;;;;;4956420;29;20030;-79
2022/05/09 02:55:10;;;;;;;7.18;4.47;;;11.80;99.90;;;;;;4956316;28;20035;-79
2022/05/09 02:57:36;;;;;;;7.05;4.60;;;11.80;99.90;;;;;;4956771;28;20031;-79
2022/05/09 03:00:11;;;;;;;7.70;5.28;;;11.70;99.90;;;;;;4957697;29;20086;-80
2022/05/09 03:02:36;;;;;;;7.15;5.63;;;11.70;99.90;;;;;;4957518;29;20034;-80
2022/05/09 03:05:03;;;;;;;8.48;5.47;;;11.80;99.90;;;;;;4957815;29;20035;-80
2022/05/09 03:07:29;;;;;;;5.60;4.55;;;11.70;99.90;;;;;;4957059;29;20023;-79
2022/05/09 03:09:55;;;;;;;4.90;3.65;;;11.80;99.90;;;;;;4956376;28;20079;-79
2022/05/09 03:12:20;;;;;;;11.50;5.68;;;11.70;99.90;;;;;;4957297;29;20027;-79
2022/05/09 03:14:48;;;;;;;18.70;6.18;;;11.80;99.90;;;;;;4957471;29;20019;-80
2022/05/09 03:17:15;;;;;;;6.22;5.22;;;11.90;99.90;;;;;;4955907;28;20508;-79
2022/05/09 03:19:41;;;;;;;8.90;5.50;;;11.90;99.90;;;;;;4957767;29;20166;-80
2022/05/09 03:22:07;;;;;;;8.73;5.28;;;11.90;99.90;;;;;;4957247;29;20027;-80
2022/05/09 03:24:34;;;;;;;7.22;5.10;;;;;;;;;;4956431;28;20039;-80
2022/05/09 03:27:02;;;;;;;7.38;5.78;;;;;;;;;;4957538;29;20055;-80
2022/05/09 03:29:28;;;;;;;10.15;6.88;;;11.90;99.90;;;;;;4955934;29;20027;-80
2022/05/09 03:31:56;;;;;;;10.10;6.10;;;11.80;99.90;;;;;;4955433;28;20062;-80
2022/05/09 03:34:22;;;;;;;7.68;6.53;;;11.80;99.90;;;;;;4957601;29;20051;-81
2022/05/09 03:36:50;;;;;;;8.98;5.97;;;11.90;99.90;;;;;;4956953;29;20111;-81
2022/05/09 03:39:16;;;;;;;9.73;6.70;;;11.90;99.90;;;;;;4957868;29;20055;-81
2022/05/09 03:41:42;;;;;;;7.75;5.38;;;11.90;99.90;;;;;;4957381;29;20057;-80
2022/05/09 03:44:08;;;;;;;10.70;6.00;;;;;;;;;;4956227;28;20023;-80
2022/05/09 03:46:33;;;;;;;10.07;5.70;;;11.90;99.90;;;;;;4955468;28;20085;-80
2022/05/09 03:49:04;;;;;;;8.75;6.03;;;11.90;99.90;;;;;;4956982;29;20019;-80
2022/05/09 03:51:30;;;;;;;9.40;6.25;;;12.00;99.90;;;;;;4955848;28;20545;-82
2022/05/09 03:53:56;;;;;;;9.80;5.60;;;12.00;99.90;;;;;;4955882;28;20031;-81
2022/05/09 03:56:22;;;;;;;8.40;6.10;;;12.00;99.90;;;;;;4955914;28;20028;-80
2022/05/09 03:58:47;;;;;;;11.27;4.97;;;12.00;99.90;;;;;;4955623;28;20046;-80
2022/05/09 04:01:13;;;;;;;7.47;5.28;;;11.90;99.90;;;;;;4956390;28;20023;-80
2022/05/09 04:03:39;;;;;;;8.70;6.53;;;11.80;99.90;;;;;;4955144;28;20023;-80
2022/05/09 04:06:05;;;;;;;8.65;5.88;;;11.90;99.90;;;;;;4957357;29;20179;-80
2022/05/09 04:08:31;;;;;;;9.57;6.07;;;11.90;99.90;;;;;;4955166;28;20046;-80
2022/05/09 04:10:57;;;;;;;8.45;6.07;;;11.90;99.90;;;;;;4955528;28;20043;-79
2022/05/09 04:13:23;;;;;;;9.00;5.40;;;12.00;99.90;;;;;;4956654;29;20023;-80
2022/05/09 04:18:38;;;;;;;9.57;5.97;;;12.00;99.90;;;;;;4956793;29;20042;-80
2022/05/09 04:21:05;;;;;;;9.40;5.72;;;12.00;99.90;;;;;;4957071;29;20031;-80
2022/05/09 04:23:30;;;;;;;7.55;5.72;;;12.00;99.90;;;;;;4955359;28;20023;-80
2022/05/09 04:25:56;;;;;;;8.82;6.15;;;12.00;99.90;;;;;;4956947;29;20597;-80
2022/05/09 04:28:22;;;;;;;8.25;6.60;;;12.00;99.90;;;;;;4956392;29;20593;-80
2022/05/09 04:30:48;;;;;;;9.98;6.35;;;12.00;99.90;;;;;;4971302;28;20095;-81
2022/05/09 04:33:14;;;;;;;11.70;6.95;;;12.00;99.90;;;;;;4955664;29;20571;-79
2022/05/09 04:35:42;;;;;;;10.80;6.55;;;12.10;99.90;;;;;;4954848;28;20126;-80
2022/05/09 04:38:13;;;;;;;7.95;5.72;;;12.10;99.90;;;;;;4956616;29;20027;-80
2022/05/09 04:40:40;;;;;;;11.65;7.03;;;12.10;99.90;;;;;;4954699;28;20502;-80
2022/05/09 04:43:06;;;;;;;8.38;6.05;;;12.20;99.90;;;;;;4954849;28;20020;-80
2022/05/09 04:45:35;;;;;;;10.63;5.43;;;12.20;99.90;;;;;;4954334;28;20035;-80
2022/05/09 04:48:02;;;;;;;9.60;8.10;;;12.20;99.90;;;;;;4955221;29;20535;-79
2022/05/09 04:50:29;;;;;;;7.65;5.20;;;12.20;99.90;;;;;;4955134;29;20028;-80
2022/05/09 04:52:55;;;;;;;8.32;6.07;;;12.20;99.90;;;;;;4954231;28;20024;-81
2022/05/09 04:55:21;;;;;;;8.70;6.38;;;12.20;99.90;;;;;;4953248;28;20031;-80
2022/05/09 04:57:51;;;;;;;9.05;6.63;;;12.30;99.90;;;;;;4953429;28;20498;-80
2022/05/09 05:00:19;;;;;;;7.97;5.95;;;12.30;99.90;;;;;;4954158;28;20043;-79
2022/05/09 05:02:45;;;;;;;9.23;6.53;;;12.30;99.90;;;;;;4953767;29;20122;-81
2022/05/09 05:05:11;;;;;;;6.65;5.68;;;12.30;99.90;;;;;;4955164;28;20125;-80
2022/05/09 05:07:37;;;;;;;9.35;5.95;;;12.40;99.90;;;;;;4955279;28;20023;-80
2022/05/09 05:10:04;;;;;;;8.57;5.25;;;12.40;99.90;;;;;;4955233;28;20555;-80
2022/05/09 05:12:30;;;;;;;9.00;6.38;;;12.40;99.90;;;;;;4959963;29;20046;-80
2022/05/09 05:14:56;;;;;;;9.45;6.93;;;12.30;99.90;;;;;;4959429;28;20081;-80
2022/05/09 05:17:21;;;;;;;6.97;5.72;;;12.40;99.90;;;;;;4963010;28;20106;-80
2022/05/09 05:19:48;;;;;;;8.70;5.88;;;12.50;99.90;;;;;;4964356;29;20110;-80
2022/05/09 05:22:15;;;;;;;9.50;6.43;;;12.60;99.90;;;;;;4964236;29;20218;-82
2022/05/09 05:24:44;;;;;;;8.02;5.90;;;12.60;99.90;;;;;;4959887;29;20468;-81
2022/05/09 05:27:12;;;;;;;11.48;6.20;;;12.70;99.90;;;;;;4965885;28;20026;-80
2022/05/09 05:29:37;;;;;;;7.72;4.68;;;12.70;99.90;;;;;;4966327;28;20035;-82
2022/05/09 05:32:19;;;;;;;8.98;6.53;;;12.80;99.90;;;;;;4964725;28;20027;-82
2022/05/09 05:34:45;;;;;;;7.72;5.25;;;12.90;99.90;;;;;;4969640;28;20042;-79
2022/05/09 05:37:12;;;;;;;7.88;6.15;;;13.00;99.90;;;;;;4965723;28;20472;-82
2022/05/09 05:39:38;;;;;;;11.15;6.22;;;;;;;;;;4959905;28;20027;-79
2022/05/09 05:42:05;;;;;;;7.28;5.10;;;13.10;99.90;;;;;;4943344;29;20467;-78
2022/05/09 05:44:31;;;;;;;5.65;4.78;;;13.30;99.90;;;;;;4939401;29;20078;-79
2022/05/09 05:46:57;;;;;;;8.00;5.75;;;13.50;99.90;;;;;;4942394;29;20623;-79
2022/05/09 05:49:22;;;;;;;8.20;5.72;;;13.60;99.90;;;;;;4940369;29;20086;-79
2022/05/09 05:51:48;;;;;;;7.53;5.53;;;13.70;99.90;;;;;;4937926;29;20557;-79
2022/05/09 05:54:14;;;;;;;9.63;5.82;;;13.90;99.90;;;;;;4938533;28;20032;-78
2022/05/09 05:56:39;;;;;;;6.93;5.10;;;14.00;99.90;;;;;;4938173;29;20028;-79
2022/05/09 05:59:05;;;;;;;8.23;5.72;;;14.00;99.90;;;;;;4938277;29;20028;-79
2022/05/09 06:01:33;;;;;;;7.85;5.18;;;14.10;99.90;;;;;;4939174;29;20038;-79
2022/05/09 06:04:00;;;;;;;5.80;4.03;;;14.20;99.90;;;;;;4941176;29;20310;-79
2022/05/09 06:06:26;;;;;;;5.28;4.40;;;14.40;99.90;;;;;;4947268;29;20031;-80
2022/05/09 06:08:52;;;;;;;7.07;5.10;;;14.40;99.90;;;;;;4952745;28;20361;-79
2022/05/09 06:11:18;;;;;;;7.03;5.35;;;14.40;99.90;;;;;;4955104;29;20039;-79
2022/05/09 06:13:43;;;;;;;4.63;4.22;;;14.30;99.90;;;;;;4956861;29;20023;-80
2022/05/09 06:16:10;;;;;;;4.47;3.75;;;14.30;99.90;;;;;;4954874;29;20086;-79
2022/05/09 06:18:36;;;;;;;6.22;4.72;;;14.40;99.90;;;;;;4966638;28;20071;-79
2022/05/09 06:21:03;;;;;;;6.53;4.55;;;14.50;99.90;;;;;;4984635;23;20047;-78
2022/05/09 06:23:29;;;;;;;6.90;5.55;;;14.40;99.90;;;;;;4981568;28;20017;-78
2022/05/09 06:25:56;;;;;;;7.05;5.00;;;14.50;99.90;;;;;;4976571;28;20131;-78
2022/05/09 06:28:23;;;;;;;5.72;4.22;;;;;;;;;;4982408;28;20003;-80
2022/05/09 06:30:49;;;;;;;5.55;3.65;;;14.60;99.90;;;;;;4981152;28;20027;-81
2022/05/09 06:35:43;;;;;;;6.45;4.97;;;15.10;99.90;;;;;;5399252;23;20055;-78
2022/05/09 06:38:14;;;;;;;7.63;4.47;;;15.20;99.90;;;;;;4977645;23;20058;-79
2022/05/09 06:40:40;;;;;;;5.03;4.32;;;15.40;99.90;;;;;;4958032;29;20023;-88
2022/05/09 06:43:07;;;;;;;6.75;3.63;;;15.90;99.90;;;;;;4971140;28;20106;-82
2022/05/09 06:45:33;;;;;;;5.30;3.58;;;15.60;99.90;;;;;;4963265;28;20035;-79
2022/05/09 06:47:59;;;;;;;8.57;5.10;;;15.60;99.90;;;;;;4964427;28;20035;-83
2022/05/09 06:50:31;;;;;;;6.80;4.43;;;15.60;99.90;;;;;;4961508;29;20118;-76
2022/05/09 06:52:58;;;;;;;3.67;3.03;;;15.60;99.90;;;;;;4962075;28;20113;-78
2022/05/09 06:55:26;;;;;;;5.55;3.65;;;15.70;99.90;;;;;;4964783;28;20024;-79
2022/05/09 06:57:52;;;;;;;8.98;4.18;;;15.80;99.90;;;;;;4962518;28;20054;-77
2022/05/09 07:00:21;;;;;;;12.68;4.50;;;16.10;99.90;;;;;;4961669;28;20019;-80
2022/05/09 07:02:47;;;;;;;4.13;3.72;;;16.00;99.90;;;;;;4953793;28;20031;-78
2022/05/09 07:05:15;;;;;;;4.80;3.88;;;15.90;99.90;;;;;;4954243;28;20031;-78
2022/05/09 07:07:43;;;;;;;5.03;4.07;;;16.00;99.90;;;;;;4954138;28;20035;-78
2022/05/09 07:10:10;;;;;;;4.97;3.97;;;16.10;99.90;;;;;;4955447;29;20070;-78
2022/05/09 07:12:51;;;;;;;7.00;4.00;;;16.10;99.90;;;;;;4953793;28;20035;-77
2022/05/09 07:15:23;;;;;;;6.80;4.00;;;15.90;99.90;;;;;;4955594;29;20467;-79
2022/05/09 07:17:50;;;;;;;4.80;4.00;;;16.20;99.90;;;;;;4955519;28;20479;-78
2022/05/09 07:20:17;;;;;;;4.57;3.70;;;16.20;99.90;;;;;;4949699;28;20558;-78
2022/05/09 07:22:43;;;;;;;8.27;4.68;;;15.90;99.90;;;;;;4939671;29;20036;-79
2022/05/09 07:25:13;;;;;;;4.35;3.92;;;16.40;99.90;;;;;;4941800;29;20043;-78
2022/05/09 07:27:42;;;;;;;7.60;5.05;;;16.50;99.90;;;;;;4939299;29;20028;-78
2022/05/09 07:30:13;;;;;;;5.25;3.50;;;16.30;99.90;;;;;;4938522;29;20031;-79
2022/05/09 07:32:39;;;;;;;4.63;4.07;;;16.90;99.90;;;;;;4940332;29;20090;-79
2022/05/09 07:35:07;;;;;;;7.15;4.22;;;17.40;99.90;;;;;;4937740;29;20047;-78
2022/05/09 07:37:33;;;;;;;3.28;2.97;;;17.50;99.90;;;;;;4943376;29;20092;-79
2022/05/09 07:39:58;;;;;;;4.13;3.40;;;17.70;99.90;;;;;;4938530;29;20031;-80
2022/05/09 07:42:24;;;;;;;4.45;3.70;;;;;;;;;;4941059;29;20053;-80
2022/05/09 07:44:52;;;;;;;4.20;3.50;;;17.80;99.90;;;;;;4937904;29;20032;-79
2022/05/09 07:47:18;;;;;;;5.43;3.70;;;17.70;99.90;;;;;;4934141;29;20036;-78
2022/05/09 07:49:45;;;;;;;5.50;4.22;;;17.50;99.90;;;;;;4935966;29;20016;-78
2022/05/09 07:52:11;;;;;;;7.28;3.85;;;18.10;99.90;;;;;;4939347;29;20054;-79
2022/05/09 07:54:37;;;;;;;3.88;2.85;;;18.60;99.90;;;;;;4933464;29;20118;-79
2022/05/09 07:57:04;;;;;;;5.15;3.63;;;19.50;99.90;;;;;;4935382;29;20043;-79
2022/05/09 07:59:30;;;;;;;5.75;2.85;;;20.40;99.90;;;;;;4934093;29;20035;-80
2022/05/09 08:01:56;;;;;;;4.63;3.55;;;20.60;99.90;;;;;;4935217;29;20027;-82
2022/05/09 08:04:22;;;;;;;3.35;3.05;;;19.80;99.90;;;;;;4932183;29;20028;-78
2022/05/09 08:06:48;;;;;;;4.45;3.50;;;20.20;99.90;;;;;;4932313;29;20377;-79
2022/05/09 08:09:14;;;;;;;5.22;4.32;;;20.60;99.90;;;;;;4932480;29;20027;-79
2022/05/09 08:11:40;;;;;;;6.82;4.45;;;19.70;99.90;;;;;;4933644;29;20034;-78
2022/05/09 08:14:06;;;;;;;4.95;4.10;;;19.60;99.90;;;;;;4936316;29;20091;-79
2022/05/09 08:16:33;;;;;;;7.18;4.22;;;19.70;99.90;;;;;;4939652;29;20016;-78
2022/05/09 08:18:59;;;;;;;5.10;4.00;;;19.60;99.90;;;;;;4932364;29;20024;-78
2022/05/09 08:21:26;;;;;;;5.30;3.65;;;19.70;99.90;;;;;;4933598;29;20115;-79
2022/05/09 08:23:51;;;;;;;6.63;3.90;;;19.60;99.90;;;;;;4933079;29;20028;-79
2022/05/09 08:26:21;;;;;;;4.97;4.10;;;20.20;99.90;;;;;;4933226;29;20062;-77
2022/05/09 08:28:48;;;;;;;7.35;3.75;;;20.20;99.90;;;;;;4933302;29;20024;-78
2022/05/09 08:31:18;;;;;;;3.85;3.55;;;19.50;99.90;;;;;;4933164;29;20023;-79
2022/05/09 08:33:46;;;;;;;4.15;3.72;;;19.90;99.90;;;;;;4931712;29;20523;-79
2022/05/09 08:36:12;;;;;;;4.95;4.13;;;19.90;99.90;;;;;;4932105;29;20023;-78
2022/05/09 08:38:38;;;;;;;4.93;3.85;;;19.10;99.90;;;;;;4931735;29;20047;-79
2022/05/09 08:41:13;;;;;;;4.55;3.38;;;18.50;99.90;;;;;;4933038;29;20031;-78
2022/05/09 08:43:45;;;;;;;5.47;4.40;;;18.20;99.90;;;;;;4933059;29;20035;-78
2022/05/09 08:46:32;;;;;;;7.22;4.55;;;18.00;99.90;;;;;;4933073;29;20054;-78
2022/05/09 08:49:00;;;;;;;6.85;5.32;;;18.40;99.90;;;;;;4932917;29;20196;-79
2022/05/09 08:51:56;;;;;;;6.53;4.47;;;18.80;99.90;;;;;;4933187;29;20086;-79
2022/05/09 08:54:23;;;;;;;5.28;3.47;;;19.30;99.90;;;;;;4931802;29;20027;-79
2022/05/09 08:57:13;;;;;;;6.70;4.18;;;19.80;99.90;;;;;;4933204;29;20024;-79
2022/05/09 08:59:51;;;;;;;4.60;3.55;;;20.20;99.90;;;;;;4932949;29;20724;-80
2022/05/09 09:02:34;;;;;;;4.28;2.92;;;19.70;99.90;;;;;;4934439;29;20477;-80
2022/05/09 09:05:03;;;;;;;5.65;4.30;;;19.80;99.90;;;;;;4931741;29;20043;-79
2022/05/09 09:08:05;;;;;;;4.05;3.60;;;19.90;99.90;;;;;;4931692;29;20161;-79
2022/05/09 09:10:55;;;;;;;7.18;4.80;;;17.50;99.90;;;;;;4936870;29;20032;-78
2022/05/09 09:13:47;;;;;;;5.38;3.60;;;20.50;99.90;;;;;;4930416;28;20035;-87
2022/05/09 09:16:28;;;;;;;4.60;3.83;;;20.50;99.90;;;;;;4935948;29;20484;-93
2022/05/09 09:19:17;;;;;;;5.57;4.40;;;20.60;99.90;;;;;;4934341;29;20039;-84
2022/05/09 09:22:02;;;;;;;3.92;3.53;;;20.20;99.90;;;;;;4949028;29;20024;-85
2022/05/09 09:24:54;;;;;;;4.88;3.58;;;19.90;99.90;;;;;;4949320;29;20060;-93
2022/05/09 09:27:31;;;;;;;7.28;4.00;;;20.00;99.90;;;;;;4934559;29;20027;-94
2022/05/09 09:30:01;;;;;;;6.25;5.38;;;19.90;99.90;;;;;;4934651;29;20043;-92
2022/05/09 09:32:27;;;;;;;6.10;4.55;;;19.80;99.90;;;;;;4948713;28;20170;-86
2022/05/09 09:34:59;;;;;;;9.02;5.32;;;20.10;99.90;;;;;;4971132;28;20038;-85
2022/05/09 09:37:24;;;;;;;7.30;5.40;;;19.60;99.90;;;;;;4990053;28;20074;-77
2022/05/09 09:39:50;;;;;;;7.35;5.07;;;;;;;;;;4998895;28;20018;-78
2022/05/09 09:42:16;;;;;;;5.97;4.60;;;19.30;99.90;;;;;;4996551;28;20023;-82
2022/05/09 09:44:48;;;;;;;4.93;4.30;;;19.60;99.90;;;;;;5002509;28;20529;-77
2022/05/09 09:47:19;;;;;;;5.57;4.63;;;19.30;99.90;;;;;;4981262;28;20030;-86
2022/05/09 09:49:48;;;;;;;7.47;4.00;;;19.30;99.90;;;;;;4981954;28;20050;-87
2022/05/09 09:52:23;;;;;;;5.38;3.90;;;19.00;99.90;;;;;;4996918;28;20098;-80
2022/05/09 09:54:56;;;;;;;8.73;4.20;;;;;;;;;;5005533;28;20039;-81
2022/05/09 09:57:28;;;;;;;8.80;4.18;;;18.70;99.90;;;;;;5005517;28;20015;-83
2022/05/09 09:59:57;;;;;;;6.60;4.43;;;;;;;;;;5005496;28;20078;-81
2022/05/09 10:02:29;;;;;;;5.80;4.25;;;18.80;99.90;;;;;;5006061;28;20058;-79
2022/05/09 10:04:57;;;;;;;7.03;5.43;;;18.90;99.90;;;;;;5005306;28;20079;-77
2022/05/09 10:07:28;;;;;;;6.20;4.25;;;18.80;99.90;;;;;;5005302;28;20018;-79
2022/05/09 10:10:24;;;;;;;5.88;4.07;;;19.10;99.90;;;;;;5001533;28;20031;-88
2022/05/09 10:12:53;;;;;;;5.82;4.22;;;19.60;99.90;;;;;;4965605;28;20736;-87
2022/05/09 10:15:35;;;;;;;5.40;3.80;;;20.00;99.90;;;;;;4977267;28;20035;-89
2022/05/09 10:18:21;;;;;;;4.72;4.18;;;19.70;99.90;;;;;;4978137;28;20019;-85
2022/05/09 10:20:51;;;;;;;4.22;3.50;;;20.00;99.90;;;;;;4974045;28;20030;-88
2022/05/09 10:26:29;;;;;;;4.68;3.42;;;20.60;99.90;;;;;;4975329;28;20042;-84
2022/05/09 10:28:59;;;;;;;6.47;3.95;;;21.00;99.90;;;;;;4974835;28;20038;-86
2022/05/09 10:31:24;;;;;;;;;;;21.20;99.90;;;;;;4975924;28;20034;-81
2022/05/09 10:34:16;;;;;;;5.22;3.42;;;20.90;99.90;;;;;;4976353;28;19906;-85
2022/05/09 10:36:56;;;;;;;3.78;3.03;;;21.00;99.90;;;;;;4965800;28;20093;-85
2022/05/09 10:39:38;;;;;;;6.47;4.28;;;20.80;99.90;;;;;;4978077;28;20102;-84
2022/05/09 10:42:10;;;;;;;4.57;2.97;;;20.80;99.90;;;;;;4978741;28;20031;-87
2022/05/09 10:45:17;;;;;;;3.50;2.95;;;20.90;99.90;;;;;;4975981;28;20102;-88
2022/05/09 10:47:59;;;;;;;3.17;2.88;;;20.80;99.90;;;;;;4979743;28;20015;-85
2022/05/09 10:50:25;;;;;;;4.10;3.17;;;21.10;99.90;;;;;;4980440;28;20093;-87
2022/05/09 10:52:59;;;;;;;3.65;3.25;;;20.40;99.90;;;;;;4984183;28;20019;-88
2022/05/09 10:55:33;;;;;;;3.78;3.15;;;20.70;99.90;;;;;;4974263;28;20041;-85
2022/05/09 10:58:20;;;;;;;4.53;3.40;;;21.40;96.40;;;;;;4972458;28;20027;-84
2022/05/09 11:00:57;;;;;;;5.00;3.08;;;21.90;99.90;;;;;;4972641;28;20073;-83
2022/05/09 11:03:34;;;;;;;3.58;3.10;;;21.40;98.60;;;;;;4970521;28;20030;-82
2022/05/09 11:06:26;;;;;;;3.30;3.00;;;22.90;85.70;;;;;;4970519;28;20062;-83
2022/05/09 11:08:57;;;;;;;4.75;2.90;;;23.50;71.00;;;;;;4971746;28;20026;-87
2022/05/09 11:11:55;;;;;;;3.45;2.72;;;22.70;75.50;;;;;;4971871;28;20049;-81
2022/05/09 11:14:45;;;;;;;2.85;2.55;;;21.00;99.90;;;;;;4933894;28;20113;-81
2022/05/09 11:17:38;;;;;;;8.10;3.58;;;20.90;99.30;;;;;;4970061;28;20023;-81
2022/05/09 11:20:12;;;;;;;4.53;2.75;;;21.70;97.20;;;;;;4971323;28;20518;-81
2022/05/09 11:22:58;;;;;;;3.58;2.92;;;22.10;93.30;;;;;;4970256;28;20023;-81
2022/05/09 11:25:52;;;;;;;2.90;2.53;;;22.30;76.80;;;;;;4969000;28;20049;-84
2022/05/09 11:28:50;;;;;;;2.30;2.10;;;23.10;71.80;;;;;;4974191;28;20090;-85
2022/05/09 11:31:57;;;;;;;3.47;3.15;;;22.60;70.70;;;;;;4934891;28;20038;-86
2022/05/09 11:34:29;;;;;;;3.83;2.35;;;23.50;68.90;;;;;;4973425;28;20068;-85
2022/05/09 11:37:07;;;;;;;3.35;3.05;;;22.90;73.50;;;;;;4971689;28;20050;-91
2022/05/09 11:39:46;;;;;;;2.50;2.40;;;22.80;71.60;;;;;;4971487;28;20050;-85
2022/05/09 11:45:16;;;;;;;3.45;2.80;;;22.80;75.60;;;;;;4973702;28;20081;-84
2022/05/09 11:48:12;;;;;;;2.25;2.05;;;23.80;78.10;;;;;;4973347;28;20050;-88
2022/05/09 11:50:45;;;;;;;3.63;1.88;;;23.30;79.60;;;;;;4970535;28;20045;-91
2022/05/09 11:53:12;;;;;;;2.95;2.47;;;23.90;67.40;;;;;;4975780;28;20023;-91
2022/05/09 11:55:39;;;;;;;5.63;2.70;;;24.00;65.80;;;;;;4973062;28;20026;-88
2022/05/09 11:58:05;;;;;;;4.32;2.72;;;23.70;64.90;;;;;;4972537;28;20031;-89
2022/05/09 12:00:33;;;;;;;2.92;2.22;;;23.80;64.10;;;;;;4973073;28;20062;-94
2022/05/09 12:03:01;;;;;;;2.83;2.63;;;23.60;63.80;;;;;;4974850;28;20030;-89
2022/05/09 12:05:28;;;;;;;3.20;2.40;;;23.60;63.90;;;;;;4973783;28;20080;-81
2022/05/09 12:08:02;;;;;;;6.55;2.60;;;23.80;64.00;;;;;;4974812;28;20023;-84
2022/05/09 12:10:35;;;;;;;2.90;2.28;;;24.10;62.90;;;;;;4972592;28;20035;-86
2022/05/09 12:13:04;;;;;;;2.72;2.50;;;24.90;61.70;;;;;;4975880;28;20125;-90
2022/05/09 12:15:29;;;;;;;;;;;24.70;60.80;;;;;;4979949;28;20460;-87
2022/05/09 12:17:58;;;;;;;2.65;2.08;;;24.00;63.80;;;;;;4979352;28;19917;-91
2022/05/09 12:20:27;;;;;;;1.88;1.77;;;23.70;64.40;;;;;;4979500;28;20030;-91
2022/05/09 12:23:07;;;;;;;2.92;2.05;;;23.90;63.20;;;;;;4976472;28;20037;-93
2022/05/09 12:25:36;;;;;;;1.90;1.70;;;23.20;63.20;;;;;;4973360;28;20157;-88
2022/05/09 12:28:26;;;;;;;3.90;2.80;;;24.20;62.50;;;;;;4973784;28;20027;-82
2022/05/09 12:30:59;;;;;;;2.30;2.10;;;25.30;59.90;;;;;;4978595;28;20031;-92
2022/05/09 12:33:30;;;;;;;2.20;2.00;;;25.20;60.50;;;;;;4978182;28;20023;-88
2022/05/09 12:36:00;;;;;;;2.92;2.25;;;24.40;60.70;;;;;;4971452;28;20037;-89
2022/05/09 12:38:39;;;;;;;2.20;2.10;;;24.40;61.30;;;;;;4970133;28;20661;-86
2022/05/09 12:41:24;;;;;;;3.08;1.88;;;24.60;62.60;;;;;;4971575;28;20027;-79
2022/05/09 12:44:24;;;;;;;2.65;2.45;;;23.60;61.10;;;;;;4970667;28;20035;-80
2022/05/09 12:47:11;;;;;;;2.60;2.15;;;24.70;60.60;;;;;;4954372;28;20663;-83
2022/05/09 12:49:41;;;;;;;2.45;2.10;;;24.70;60.90;;;;;;4968281;28;20026;-83
2022/05/09 12:52:09;;;;;;;2.03;1.83;;;23.70;58.30;;;;;;4968403;28;20117;-81
2022/05/09 12:54:39;;;;;;;2.25;2.10;;;25.90;60.00;;;;;;4969299;28;20049;-82
2022/05/09 12:57:06;;;;;;;3.97;2.38;;;26.50;58.30;;;;;;4969281;28;20030;-85
2022/05/09 12:59:51;;;;;;;7.13;2.25;;;27.20;57.30;;;;;;4967816;28;20027;-86
2022/05/09 13:02:25;;;;;;;2.47;2.22;;;27.50;56.10;;;;;;4966887;28;20031;-84
2022/05/09 13:04:52;;;;;;;2.50;2.30;;;27.50;55.70;;;;;;4968452;28;20113;-84
2022/05/09 13:07:19;;;;;;;3.78;2.80;;;27.00;57.60;;;;;;4968529;28;20030;-86
2022/05/09 13:09:46;;;;;;;2.83;2.50;;;26.20;58.30;;;;;;4968126;28;20041;-87
2022/05/09 13:12:30;;;;;;;3.55;2.28;;;24.00;60.90;;;;;;4967940;28;20027;-87
2022/05/09 13:15:00;;;;;;;2.53;2.00;;;23.70;60.70;;;;;;4969176;28;20019;-89
2022/05/09 13:17:30;;;;;;;2.28;2.08;;;24.50;61.80;;;;;;4973334;28;20031;-89
2022/05/09 13:19:57;;;;;;;3.60;2.08;;;24.50;62.60;;;;;;4972731;28;20158;-88
2022/05/09 13:22:32;;;;;;;2.53;2.28;;;25.40;61.40;;;;;;4975690;28;20030;-88
2022/05/09 13:25:09;;;;;;;2.35;2.15;;;25.90;59.70;;;;;;4972035;28;20045;-89